Terminal Aerodrome Forecast
Issued by NWS

Home | Current Version | Previous Version | Text Only | Print | Product List | Glossary Off
Versions: 1 2 3 4 5 6 7 8 9 10 11 12 13 14 15 16 17 18 19

229
FTUS43 KABR 271723
TAFATY
TAF
KATY 271723Z 2718/2818 18014G24KT P6SM FEW150
     FM280300 17015G24KT P6SM BKN060
     FM280500 17015G23KT P6SM -SHRA VCTS BKN060CB WS020/19045KT
     FM280700 17014G23KT P6SM SHRA VCTS BKN025CB
     FM280900 17012G19KT P6SM BKN035
     FM281600 29012G19KT P6SM BKN050=

USA.gov is the U.S. government's official web portal to all federal, state and local government web resources and services.